createdAt,value
2018-10-16T00:00:22.756Z,61.16
2018-10-16T00:01:22.987Z,61.17
2018-10-16T00:02:22.853Z,61.17
2018-10-16T00:03:22.741Z,61.2
2018-10-16T00:04:22.931Z,61.14
2018-10-16T00:05:22.779Z,61.1
2018-10-16T00:06:23.172Z,61.15
2018-10-16T00:07:23.067Z,61.06
2018-10-16T00:08:22.797Z,61.06
2018-10-16T00:09:22.730Z,61.12
2018-10-16T00:10:23.052Z,61.12
2018-10-16T00:11:22.938Z,61.05
2018-10-16T00:12:22.831Z,61.16
2018-10-16T00:13:23.023Z,61.14
2018-10-16T00:14:22.913Z,61.14
2018-10-16T00:15:22.913Z,61.1
2018-10-16T00:16:23.279Z,61.14
2018-10-16T00:17:23.143Z,61.1
2018-10-16T00:18:22.721Z,61.11
2018-10-16T00:19:22.897Z,61.1
2018-10-16T00:20:22.931Z,61.08
2018-10-16T00:21:23.163Z,61.07
2018-10-16T00:22:23.118Z,61.13
2018-10-16T00:23:23.331Z,61.12
2018-10-16T00:24:23.182Z,61.12
2018-10-16T00:25:22.881Z,61.14
2018-10-16T00:26:23.025Z,61.19
2018-10-16T00:27:22.849Z,61.07
2018-10-16T00:28:22.929Z,61.11
2018-10-16T00:29:22.996Z,61.03
2018-10-16T00:30:22.958Z,61.14
2018-10-16T00:31:22.845Z,61.17
2018-10-16T00:32:22.953Z,61.06
2018-10-16T00:33:22.819Z,61.11
2018-10-16T00:34:22.954Z,61.08
2018-10-16T00:35:22.803Z,61.13
2018-10-16T00:36:22.860Z,61.12
2018-10-16T00:37:22.999Z,61.12
2018-10-16T00:38:23.076Z,61.08
2018-10-16T00:39:22.814Z,61.13
2018-10-16T00:40:23.062Z,61.09
2018-10-16T00:41:22.858Z,61.15
2018-10-16T00:42:23.003Z,61.13
2018-10-16T00:43:22.896Z,61.07
2018-10-16T00:44:22.954Z,61.15
2018-10-16T00:45:23.004Z,61.16
2018-10-16T00:46:23.089Z,61.12
2018-10-16T00:47:22.903Z,61.1
2018-10-16T00:48:22.978Z,61.12
2018-10-16T00:49:22.881Z,61.12
2018-10-16T00:50:23.043Z,61.05
2018-10-16T00:51:23.016Z,61.07
2018-10-16T00:52:22.742Z,61.04
2018-10-16T00:53:22.849Z,60.99
2018-10-16T00:54:22.816Z,61.06
2018-10-16T00:55:22.823Z,61.18
2018-10-16T00:56:22.825Z,61.09
2018-10-16T00:57:22.771Z,61.09
2018-10-16T00:58:22.872Z,61.13
2018-10-16T00:59:22.986Z,61.09
2018-10-16T01:00:22.861Z,61.15
2018-10-16T01:01:22.936Z,61.11
2018-10-16T01:02:22.938Z,61.07
2018-10-16T01:03:22.911Z,61.06
2018-10-16T01:04:22.838Z,61.1
2018-10-16T01:05:22.845Z,61.07
2018-10-16T01:06:23.013Z,61.1
2018-10-16T01:07:23.128Z,61.08
2018-10-16T01:08:22.860Z,61.08
2018-10-16T01:09:22.881Z,61.04
2018-10-16T01:10:22.819Z,61.16
2018-10-16T01:11:22.945Z,61.04
2018-10-16T01:12:22.740Z,61.08
2018-10-16T01:13:24.189Z,61.08
2018-10-16T01:14:22.859Z,61.03
2018-10-16T01:15:22.854Z,61.15
2018-10-16T01:16:22.897Z,61.02
2018-10-16T01:17:23.073Z,61.04
2018-10-16T01:18:22.713Z,61.08
2018-10-16T01:19:22.943Z,61.08
2018-10-16T01:20:22.967Z,61.07
2018-10-16T01:21:23.039Z,61.04
2018-10-16T01:22:23.023Z,61.01
2018-10-16T01:23:23.110Z,60.99
2018-10-16T01:24:23.362Z,61.09
2018-10-16T01:25:22.662Z,61.14
2018-10-16T01:26:22.779Z,61.1
2018-10-16T01:27:23.303Z,61.05
2018-10-16T01:28:22.807Z,60.97
2018-10-16T01:29:22.885Z,60.95
2018-10-16T01:30:23.029Z,60.99
2018-10-16T01:31:22.973Z,61.05
2018-10-16T01:32:23.101Z,61.05
2018-10-16T01:33:22.697Z,61.05
2018-10-16T01:34:23.026Z,61.04
2018-10-16T01:35:22.943Z,61.11
2018-10-16T01:36:23.230Z,61.02
2018-10-16T01:37:23.079Z,61.02
2018-10-16T01:38:22.816Z,60.96
2018-10-16T01:39:22.868Z,61.08
2018-10-16T01:40:22.949Z,61.04
2018-10-16T01:41:23.063Z,60.97
2018-10-16T01:42:22.869Z,60.97
2018-10-16T01:43:23.053Z,61.02
2018-10-16T01:44:23.441Z,61.01
2018-10-16T01:45:22.785Z,61.12
2018-10-16T01:46:22.690Z,61.05
2018-10-16T01:47:22.872Z,61.02
2018-10-16T01:48:22.698Z,60.92
2018-10-16T01:49:23.095Z,61.05
2018-10-16T01:50:22.840Z,61.03
2018-10-16T01:51:22.884Z,61
2018-10-16T01:52:22.842Z,60.99
2018-10-16T01:53:22.891Z,60.97
2018-10-16T01:54:23.014Z,60.95
2018-10-16T01:55:22.890Z,61
2018-10-16T01:56:23.143Z,60.99
2018-10-16T01:57:23.025Z,61.07
2018-10-16T01:58:23.020Z,61.05
2018-10-16T01:59:22.728Z,61.04
2018-10-16T02:00:22.708Z,61.05
2018-10-16T02:01:22.915Z,60.99
2018-10-16T02:02:22.678Z,61.05
2018-10-16T02:03:22.872Z,61.07
2018-10-16T02:04:22.651Z,60.97
2018-10-16T02:05:22.923Z,61.05
2018-10-16T02:06:22.973Z,60.98
2018-10-16T02:07:22.912Z,61.09
2018-10-16T02:08:22.741Z,61.04
2018-10-16T02:09:23.274Z,61.04
2018-10-16T02:10:22.950Z,60.97
2018-10-16T02:11:22.953Z,61.03
2018-10-16T02:12:22.945Z,61.01
2018-10-16T02:13:22.859Z,60.99
2018-10-16T02:14:22.868Z,60.97
2018-10-16T02:15:22.819Z,60.99
2018-10-16T02:16:23.036Z,60.99
2018-10-16T02:17:22.826Z,61
2018-10-16T02:18:22.784Z,61
2018-10-16T02:19:22.719Z,60.97
2018-10-16T02:20:22.966Z,61
2018-10-16T02:21:22.801Z,61.06
2018-10-16T02:22:22.940Z,61.06
2018-10-16T02:23:23.112Z,60.98
2018-10-16T02:24:22.803Z,61.03
2018-10-16T02:25:22.987Z,61
2018-10-16T02:26:22.759Z,61.09
2018-10-16T02:27:22.893Z,60.95
2018-10-16T02:28:22.740Z,61.09
2018-10-16T02:29:22.865Z,60.94
2018-10-16T02:30:22.754Z,60.91
2018-10-16T02:31:22.814Z,61.02
2018-10-16T02:32:22.803Z,61.1
2018-10-16T02:33:22.831Z,60.98
2018-10-16T02:34:22.824Z,61.02
2018-10-16T02:35:22.959Z,60.93
2018-10-16T02:36:22.939Z,61.04
2018-10-16T02:37:22.842Z,61.01
2018-10-16T02:38:22.919Z,60.97
2018-10-16T02:39:22.885Z,61
2018-10-16T02:40:23.026Z,60.95
2018-10-16T02:41:22.742Z,60.97
2018-10-16T02:42:22.776Z,60.99
2018-10-16T02:43:22.725Z,61.02
2018-10-16T02:44:22.817Z,61.01
2018-10-16T02:45:23.132Z,60.99
2018-10-16T02:46:22.784Z,60.9
2018-10-16T02:47:22.844Z,60.98
2018-10-16T02:48:23.126Z,60.94
2018-10-16T02:49:22.983Z,60.97
2018-10-16T02:50:23.103Z,60.96
2018-10-16T02:51:22.932Z,60.96
2018-10-16T02:52:22.939Z,60.99
2018-10-16T02:53:22.866Z,60.99
2018-10-16T02:54:22.651Z,60.95
2018-10-16T02:55:23.019Z,61.03
2018-10-16T02:56:22.745Z,60.97
2018-10-16T02:57:22.742Z,60.98
2018-10-16T02:58:22.964Z,61
2018-10-16T02:59:23.321Z,60.95
2018-10-16T03:00:22.880Z,60.98
2018-10-16T03:01:22.827Z,60.88
2018-10-16T03:02:22.824Z,60.95
2018-10-16T03:03:22.771Z,60.86
2018-10-16T03:04:23.089Z,60.89
2018-10-16T03:05:23.038Z,60.91
2018-10-16T03:06:22.902Z,60.93
2018-10-16T03:07:22.948Z,60.88
2018-10-16T03:08:22.923Z,60.98
2018-10-16T03:09:22.761Z,60.91
2018-10-16T03:10:22.627Z,60.96
2018-10-16T03:11:22.898Z,60.94
2018-10-16T03:12:22.919Z,60.88
2018-10-16T03:13:23.198Z,60.88
2018-10-16T03:14:22.779Z,60.9
2018-10-16T03:15:22.755Z,60.87
2018-10-16T03:16:22.725Z,60.99
2018-10-16T03:17:22.803Z,60.97
2018-10-16T03:18:22.703Z,60.94
2018-10-16T03:19:22.893Z,60.99
2018-10-16T03:20:22.914Z,60.89
2018-10-16T03:21:23.002Z,60.9
2018-10-16T03:22:22.881Z,60.84
2018-10-16T03:23:22.715Z,61.05
2018-10-16T03:24:24.049Z,60.91
2018-10-16T03:25:22.777Z,60.9
2018-10-16T03:26:22.817Z,60.99
2018-10-16T03:27:22.880Z,60.89
2018-10-16T03:28:22.998Z,60.9
2018-10-16T03:29:22.769Z,60.83
2018-10-16T03:30:22.712Z,60.91
2018-10-16T03:31:22.753Z,60.84
2018-10-16T03:32:22.722Z,60.87
2018-10-16T03:33:23.466Z,60.86
2018-10-16T03:34:22.664Z,60.87
2018-10-16T03:35:22.756Z,60.89
2018-10-16T03:36:22.923Z,60.78
2018-10-16T03:37:23.198Z,60.92
2018-10-16T03:38:24.010Z,60.83
2018-10-16T03:39:22.882Z,60.83
2018-10-16T03:40:22.642Z,60.8
2018-10-16T03:41:22.700Z,60.86
2018-10-16T03:42:22.774Z,60.87
2018-10-16T03:43:22.698Z,60.95
2018-10-16T03:44:22.997Z,60.82
2018-10-16T03:45:22.932Z,60.96
2018-10-16T03:46:22.797Z,60.9
2018-10-16T03:47:24.036Z,60.89
2018-10-16T03:48:22.855Z,60.89
2018-10-16T03:49:22.799Z,60.88
2018-10-16T03:50:22.760Z,60.91
2018-10-16T03:51:22.726Z,60.9
2018-10-16T03:52:22.821Z,60.91
2018-10-16T03:53:22.772Z,60.96
2018-10-16T03:54:22.801Z,60.89
2018-10-16T03:55:22.768Z,60.9
2018-10-16T03:56:23.424Z,60.86
2018-10-16T03:57:23.186Z,60.95
2018-10-16T03:58:22.857Z,60.93
2018-10-16T03:59:22.716Z,60.87
2018-10-16T04:00:22.982Z,60.86
2018-10-16T04:01:22.660Z,60.92
2018-10-16T04:02:22.787Z,60.92
2018-10-16T04:03:22.970Z,60.94
2018-10-16T04:04:22.745Z,60.88
2018-10-16T04:05:23.044Z,60.85
2018-10-16T04:06:22.813Z,60.9
2018-10-16T04:07:22.800Z,60.97
2018-10-16T04:08:22.801Z,60.88
2018-10-16T04:09:22.731Z,60.86
2018-10-16T04:10:22.669Z,60.85
2018-10-16T04:11:22.583Z,60.9
2018-10-16T04:12:22.875Z,60.84
2018-10-16T04:13:22.642Z,60.89
2018-10-16T04:14:22.643Z,60.85
2018-10-16T04:15:22.700Z,60.85
2018-10-16T04:16:22.766Z,60.96
2018-10-16T04:17:22.735Z,60.95
2018-10-16T04:18:23.006Z,60.88
2018-10-16T04:19:22.852Z,60.85
2018-10-16T04:20:22.845Z,60.93
2018-10-16T04:21:22.795Z,60.85
2018-10-16T04:22:23.003Z,60.83
2018-10-16T04:23:22.848Z,60.88
2018-10-16T04:24:22.788Z,60.85
2018-10-16T04:25:22.628Z,60.91
2018-10-16T04:26:22.732Z,60.84
2018-10-16T04:27:23.077Z,60.9
2018-10-16T04:28:22.693Z,60.8
2018-10-16T04:29:22.875Z,60.86
2018-10-16T04:30:22.879Z,60.89
2018-10-16T04:31:22.872Z,60.84
2018-10-16T04:32:22.841Z,60.8
2018-10-16T04:33:22.878Z,60.79
2018-10-16T04:34:23.057Z,60.82
2018-10-16T04:35:22.674Z,60.84
2018-10-16T04:36:22.748Z,60.87
2018-10-16T04:37:23.212Z,60.84
2018-10-16T04:38:22.767Z,60.8
2018-10-16T04:39:22.798Z,60.71
2018-10-16T04:40:23.015Z,60.8
2018-10-16T04:41:23.341Z,60.83
2018-10-16T04:42:22.760Z,60.79
2018-10-16T04:43:22.815Z,60.8
2018-10-16T04:44:22.677Z,60.88
2018-10-16T04:45:23.142Z,60.84
2018-10-16T04:46:22.898Z,60.83
2018-10-16T04:47:22.855Z,60.77
2018-10-16T04:48:22.632Z,60.82
2018-10-16T04:49:22.789Z,60.87
2018-10-16T04:50:22.716Z,60.86
2018-10-16T04:51:22.729Z,60.83
2018-10-16T04:52:22.646Z,60.86
2018-10-16T04:53:23.319Z,60.83
2018-10-16T04:54:22.660Z,60.92
2018-10-16T04:55:22.837Z,60.8
2018-10-16T04:56:22.666Z,60.78
2018-10-16T04:57:23.010Z,60.78
2018-10-16T04:58:23.351Z,60.78
2018-10-16T04:59:22.628Z,60.79
2018-10-16T05:00:22.709Z,60.79
2018-10-16T05:01:22.878Z,60.79
2018-10-16T05:02:23.454Z,60.75
2018-10-16T05:03:23.079Z,60.83
2018-10-16T05:04:23.060Z,60.81
2018-10-16T05:05:22.781Z,60.77
2018-10-16T05:06:22.859Z,60.77
2018-10-16T05:07:22.714Z,60.71
2018-10-16T05:08:23.007Z,60.83
2018-10-16T05:09:22.666Z,60.72
2018-10-16T05:10:22.897Z,60.73
2018-10-16T05:11:22.711Z,60.87
2018-10-16T05:12:22.782Z,60.71
2018-10-16T05:13:23.123Z,60.68
2018-10-16T05:14:22.935Z,60.79
2018-10-16T05:15:23.085Z,60.75
2018-10-16T05:16:22.757Z,60.82
2018-10-16T05:17:22.879Z,60.79
2018-10-16T05:18:22.678Z,60.76
2018-10-16T05:19:22.891Z,60.79
2018-10-16T05:20:22.715Z,60.81
2018-10-16T05:21:22.838Z,60.72
2018-10-16T05:22:22.831Z,60.73
2018-10-16T05:23:22.683Z,60.75
2018-10-16T05:24:22.659Z,60.74
2018-10-16T05:25:22.914Z,60.79
2018-10-16T05:26:22.962Z,60.74
2018-10-16T05:27:22.755Z,60.69
2018-10-16T05:28:22.658Z,60.78
2018-10-16T05:29:22.686Z,60.7
2018-10-16T05:30:22.705Z,60.75
2018-10-16T05:31:23.070Z,60.79
2018-10-16T05:32:23.073Z,60.74
2018-10-16T05:33:22.824Z,60.79
2018-10-16T05:34:22.828Z,60.72
2018-10-16T05:35:22.769Z,60.75
2018-10-16T05:36:22.740Z,60.76
2018-10-16T05:37:22.988Z,60.69
2018-10-16T05:38:22.803Z,60.76
2018-10-16T05:39:22.908Z,60.71
2018-10-16T05:40:22.742Z,60.73
2018-10-16T05:41:22.634Z,60.66
2018-10-16T05:42:22.694Z,60.69
2018-10-16T05:43:22.719Z,60.72
2018-10-16T05:44:23.202Z,60.59
2018-10-16T05:45:22.876Z,60.64
2018-10-16T05:46:22.949Z,60.74
2018-10-16T05:47:22.730Z,60.71
2018-10-16T05:48:22.841Z,60.67
2018-10-16T05:49:23.598Z,60.72
2018-10-16T05:50:22.942Z,60.67
2018-10-16T05:51:23.965Z,60.78
2018-10-16T05:52:22.829Z,60.67
2018-10-16T05:53:22.886Z,60.71
2018-10-16T05:54:23.072Z,60.69
2018-10-16T05:55:22.775Z,60.76
2018-10-16T05:56:22.724Z,60.65
2018-10-16T05:57:22.797Z,60.62
2018-10-16T05:58:22.727Z,60.65
2018-10-16T05:59:22.632Z,60.79
2018-10-16T06:00:22.855Z,60.78
2018-10-16T06:01:22.834Z,60.8
2018-10-16T06:02:22.758Z,60.76
2018-10-16T06:03:23.013Z,60.76
2018-10-16T06:04:22.960Z,60.69
2018-10-16T06:05:22.557Z,60.73
2018-10-16T06:06:22.625Z,60.77
2018-10-16T06:07:22.988Z,60.78
2018-10-16T06:08:22.921Z,60.75
2018-10-16T06:09:23.018Z,60.67
2018-10-16T06:10:22.907Z,60.65
2018-10-16T06:11:23.964Z,60.69
2018-10-16T06:12:23.044Z,60.78
2018-10-16T06:13:22.758Z,60.78
2018-10-16T06:14:23.144Z,60.74
2018-10-16T06:15:23.272Z,60.74
2018-10-16T06:16:22.655Z,60.78
2018-10-16T06:17:22.790Z,60.79
2018-10-16T06:18:22.826Z,60.69
2018-10-16T06:19:22.829Z,60.64
2018-10-16T06:20:22.874Z,60.78
2018-10-16T06:21:22.704Z,60.78
2018-10-16T06:22:22.743Z,60.7
2018-10-16T06:23:23.199Z,60.66
2018-10-16T06:24:22.902Z,60.78
2018-10-16T06:25:22.664Z,60.64
2018-10-16T06:26:23.226Z,60.72
2018-10-16T06:27:22.885Z,60.72
2018-10-16T06:28:23.137Z,60.75
2018-10-16T06:29:22.692Z,60.79
2018-10-16T06:30:23.343Z,60.77
2018-10-16T06:31:22.782Z,60.81
2018-10-16T06:32:22.820Z,60.75
2018-10-16T06:33:23.284Z,60.82
2018-10-16T06:34:22.677Z,60.77
2018-10-16T06:35:22.688Z,60.67
2018-10-16T06:36:22.997Z,60.73
2018-10-16T06:37:22.769Z,60.75
2018-10-16T06:38:23.006Z,60.8
2018-10-16T06:39:22.947Z,60.7
2018-10-16T06:40:23.040Z,60.74
2018-10-16T06:41:23.111Z,60.73
2018-10-16T06:42:22.645Z,60.78
2018-10-16T06:43:22.894Z,60.74
2018-10-16T06:44:22.955Z,60.8
2018-10-16T06:45:22.949Z,60.73
2018-10-16T06:46:22.830Z,60.75
2018-10-16T06:47:23.591Z,60.64
2018-10-16T06:48:23.757Z,60.67
2018-10-16T06:49:22.722Z,60.67
2018-10-16T06:50:22.656Z,60.7
2018-10-16T06:51:22.965Z,60.72
2018-10-16T06:52:22.730Z,60.71
2018-10-16T06:53:22.928Z,60.67
2018-10-16T06:54:22.935Z,60.69
2018-10-16T06:55:22.929Z,60.71
2018-10-16T06:56:22.887Z,60.67
2018-10-16T06:57:23.272Z,60.66
2018-10-16T06:58:23.066Z,60.75
2018-10-16T06:59:22.719Z,60.73
2018-10-16T07:00:23.008Z,60.67
2018-10-16T07:01:22.771Z,60.7
2018-10-16T07:02:22.623Z,60.75
2018-10-16T07:03:22.718Z,60.67
2018-10-16T07:04:22.612Z,60.65
2018-10-16T07:05:22.945Z,60.66
2018-10-16T07:06:22.731Z,60.77
2018-10-16T07:07:22.927Z,60.73
2018-10-16T07:08:22.929Z,60.71
2018-10-16T07:09:23.133Z,60.6
2018-10-16T07:10:22.730Z,60.58
2018-10-16T07:11:22.761Z,60.59
2018-10-16T07:12:22.846Z,60.7
2018-10-16T07:13:22.608Z,60.58
2018-10-16T07:14:22.675Z,60.6
2018-10-16T07:15:22.990Z,60.58
2018-10-16T07:16:22.892Z,60.72
2018-10-16T07:17:22.911Z,60.66
2018-10-16T07:18:22.708Z,60.61
2018-10-16T07:19:22.738Z,60.7
2018-10-16T07:20:22.794Z,60.74
2018-10-16T07:21:22.968Z,60.65
2018-10-16T07:22:22.698Z,60.68
2018-10-16T07:23:23.129Z,60.62
2018-10-16T07:24:22.680Z,60.64
2018-10-16T07:25:22.619Z,60.65
2018-10-16T07:26:22.615Z,60.69
2018-10-16T07:27:22.909Z,60.63
2018-10-16T07:28:22.793Z,60.62
2018-10-16T07:29:23.051Z,60.65
2018-10-16T07:30:22.843Z,60.61
2018-10-16T07:31:22.523Z,60.64
2018-10-16T07:32:22.943Z,60.75
2018-10-16T07:33:22.856Z,60.66
2018-10-16T07:34:22.846Z,60.57
2018-10-16T07:35:22.785Z,60.66
2018-10-16T07:36:22.791Z,60.59
2018-10-16T07:37:22.648Z,60.63
2018-10-16T07:38:24.099Z,60.67
2018-10-16T07:39:22.621Z,60.67
2018-10-16T07:40:22.685Z,60.65
2018-10-16T07:41:23.026Z,60.62
2018-10-16T07:42:22.913Z,60.65
2018-10-16T07:43:22.729Z,60.67
2018-10-16T07:44:22.744Z,60.61
2018-10-16T07:45:22.793Z,60.59
2018-10-16T07:46:22.730Z,60.65
2018-10-16T07:47:22.737Z,60.57
2018-10-16T07:48:24.573Z,60.64
2018-10-16T07:49:22.655Z,60.68
2018-10-16T07:50:23.001Z,60.59
2018-10-16T07:51:22.888Z,60.68
2018-10-16T07:52:22.630Z,60.71
2018-10-16T07:53:22.928Z,60.63
2018-10-16T07:54:22.673Z,60.66
2018-10-16T07:55:22.688Z,60.67
2018-10-16T07:56:22.838Z,60.6
2018-10-16T07:57:22.945Z,60.65
2018-10-16T07:58:22.964Z,60.74
2018-10-16T07:59:22.681Z,60.66
2018-10-16T08:00:22.643Z,60.66
2018-10-16T08:01:23.168Z,60.6
2018-10-16T08:02:22.739Z,60.65
2018-10-16T08:03:22.688Z,60.72
2018-10-16T08:04:22.800Z,60.7
2018-10-16T08:05:22.822Z,60.72
2018-10-16T08:06:22.644Z,60.74
2018-10-16T08:07:22.930Z,60.66
2018-10-16T08:08:22.776Z,60.71
2018-10-16T08:09:22.700Z,60.72
2018-10-16T08:10:22.755Z,60.7
2018-10-16T08:11:22.882Z,60.7
2018-10-16T08:12:22.679Z,60.73
2018-10-16T08:13:22.624Z,60.71
2018-10-16T08:14:22.746Z,60.73
2018-10-16T08:15:22.899Z,60.77
2018-10-16T08:16:22.669Z,60.74
2018-10-16T08:17:22.876Z,60.74
2018-10-16T08:18:22.875Z,60.72
2018-10-16T08:19:22.834Z,60.68
2018-10-16T08:20:22.529Z,60.74
2018-10-16T08:21:22.708Z,60.75
2018-10-16T08:22:22.709Z,60.75
2018-10-16T08:23:22.644Z,60.79
2018-10-16T08:24:22.632Z,60.74
2018-10-16T08:25:22.643Z,60.75
2018-10-16T08:26:22.632Z,60.75
2018-10-16T08:27:22.907Z,60.76
2018-10-16T08:28:22.877Z,60.72
2018-10-16T08:29:22.699Z,60.72
2018-10-16T08:30:22.715Z,60.71
2018-10-16T08:31:22.667Z,60.66
2018-10-16T08:32:22.701Z,60.75
2018-10-16T08:33:22.668Z,60.67
2018-10-16T08:34:22.722Z,60.65
2018-10-16T08:35:22.659Z,60.76
2018-10-16T08:36:22.914Z,60.71
2018-10-16T08:37:23.150Z,60.7
2018-10-16T08:38:22.543Z,60.71
2018-10-16T08:39:22.725Z,60.65
2018-10-16T08:40:22.752Z,60.66
2018-10-16T08:41:22.661Z,60.84
2018-10-16T08:42:22.709Z,60.68
2018-10-16T08:43:23.589Z,60.79
2018-10-16T08:44:22.849Z,60.78
2018-10-16T08:45:22.872Z,60.7
2018-10-16T08:46:22.889Z,60.7
2018-10-16T08:47:23.099Z,60.73
2018-10-16T08:48:23.156Z,60.72
2018-10-16T08:49:22.546Z,60.64
2018-10-16T08:50:22.679Z,60.77
2018-10-16T08:51:22.858Z,60.75
2018-10-16T08:52:22.832Z,60.76
2018-10-16T08:53:22.480Z,60.73
2018-10-16T08:54:22.885Z,60.7
2018-10-16T08:55:22.760Z,60.71
2018-10-16T08:56:22.884Z,60.74
2018-10-16T08:57:22.584Z,60.72
2018-10-16T08:58:22.533Z,60.78
2018-10-16T08:59:23.011Z,60.61
2018-10-16T09:00:22.774Z,60.69
2018-10-16T09:01:22.700Z,60.79
2018-10-16T09:02:22.553Z,60.67
2018-10-16T09:03:22.887Z,60.78
2018-10-16T09:04:22.749Z,60.66
2018-10-16T09:05:22.937Z,60.66
2018-10-16T09:06:22.704Z,60.66
2018-10-16T09:07:23.071Z,60.65
2018-10-16T09:08:22.589Z,60.63
2018-10-16T09:09:22.701Z,60.66
2018-10-16T09:10:22.583Z,60.69
2018-10-16T09:11:22.693Z,60.78
2018-10-16T09:12:22.841Z,60.57
2018-10-16T09:13:22.795Z,60.7
2018-10-16T09:14:22.820Z,60.63
2018-10-16T09:15:22.793Z,60.67
2018-10-16T09:16:22.885Z,60.66
2018-10-16T09:17:22.723Z,60.68
2018-10-16T09:18:22.663Z,60.67
2018-10-16T09:19:22.728Z,60.64
2018-10-16T09:20:22.950Z,60.73
2018-10-16T09:21:22.850Z,60.68
2018-10-16T09:22:22.944Z,60.78
2018-10-16T09:23:22.944Z,60.72
2018-10-16T09:24:22.678Z,60.61
2018-10-16T09:25:22.647Z,60.69
2018-10-16T09:26:22.654Z,60.79
2018-10-16T09:27:22.855Z,60.66
2018-10-16T09:28:22.670Z,60.71
2018-10-16T09:29:22.825Z,60.64
2018-10-16T09:30:22.851Z,60.63
2018-10-16T09:31:22.714Z,60.73
2018-10-16T09:32:22.633Z,60.64
2018-10-16T09:33:22.952Z,60.67
2018-10-16T09:34:22.674Z,60.65
2018-10-16T09:35:22.524Z,60.65
2018-10-16T09:36:22.857Z,60.65
2018-10-16T09:37:22.760Z,60.7
2018-10-16T09:38:22.685Z,60.75
2018-10-16T09:39:22.645Z,60.69
2018-10-16T09:40:22.790Z,60.75
2018-10-16T09:41:22.669Z,60.76
2018-10-16T09:42:22.846Z,60.69
2018-10-16T09:43:22.803Z,60.72
2018-10-16T09:44:22.720Z,60.75
2018-10-16T09:45:22.662Z,60.33
2018-10-16T09:46:22.547Z,60.55
2018-10-16T09:47:22.606Z,60.49
2018-10-16T09:48:23.011Z,60.58
2018-10-16T09:49:22.901Z,60.61
2018-10-16T09:50:22.480Z,60.65
2018-10-16T09:51:22.780Z,60.57
2018-10-16T09:52:22.692Z,60.61
2018-10-16T09:53:22.660Z,60.6
2018-10-16T09:54:23.084Z,60.52
2018-10-16T09:55:22.665Z,60.62
2018-10-16T09:56:22.682Z,60.55
2018-10-16T09:57:22.613Z,60.59
2018-10-16T09:58:22.699Z,60.55
2018-10-16T09:59:22.684Z,60.6
2018-10-16T10:00:22.768Z,60.62
2018-10-16T10:01:22.680Z,60.6
2018-10-16T10:02:22.548Z,60.54
2018-10-16T10:03:22.779Z,60.53
2018-10-16T10:04:22.480Z,60.59
2018-10-16T10:05:22.851Z,60.54
2018-10-16T10:06:22.876Z,60.51
2018-10-16T10:07:22.495Z,60.57
2018-10-16T10:08:22.769Z,60.51
2018-10-16T10:09:22.820Z,60.58
2018-10-16T10:10:22.715Z,60.59
2018-10-16T10:11:22.537Z,60.53
2018-10-16T10:12:23.011Z,60.51
2018-10-16T10:13:22.527Z,60.59
2018-10-16T10:14:22.587Z,60.46
2018-10-16T10:15:22.739Z,60.53
2018-10-16T10:16:22.629Z,60.57
2018-10-16T10:17:22.723Z,60.55
2018-10-16T10:18:22.952Z,60.51
2018-10-16T10:19:22.723Z,60.58
2018-10-16T10:20:22.659Z,60.53
2018-10-16T10:21:22.899Z,60.54
2018-10-16T10:22:22.900Z,60.59
2018-10-16T10:23:22.751Z,60.5
2018-10-16T10:24:22.710Z,60.53
2018-10-16T10:25:22.922Z,60.55
2018-10-16T10:26:22.786Z,60.55
2018-10-16T10:27:23.034Z,60.47
2018-10-16T10:28:22.703Z,60.5
2018-10-16T10:29:22.713Z,60.44
2018-10-16T10:30:22.449Z,60.5
2018-10-16T10:31:22.807Z,60.53
2018-10-16T10:32:22.688Z,60.44
2018-10-16T10:33:22.671Z,60.52
2018-10-16T10:34:22.928Z,60.55
2018-10-16T10:35:22.836Z,60.54
2018-10-16T10:36:22.823Z,60.47
2018-10-16T10:37:22.597Z,60.44
2018-10-16T10:38:22.468Z,60.46
2018-10-16T10:39:22.826Z,60.53
2018-10-16T10:40:22.681Z,60.48
2018-10-16T10:41:22.905Z,60.49
2018-10-16T10:42:22.832Z,60.44
2018-10-16T10:43:22.758Z,60.51
2018-10-16T10:44:22.744Z,60.52
2018-10-16T10:45:22.954Z,60.52
2018-10-16T10:46:22.763Z,60.55
2018-10-16T10:47:22.661Z,60.54
2018-10-16T10:48:22.565Z,60.49
2018-10-16T10:49:22.816Z,60.54
2018-10-16T10:50:23.238Z,60.46
2018-10-16T10:51:23.902Z,60.44
2018-10-16T10:52:22.704Z,60.5
2018-10-16T10:53:22.767Z,60.47
2018-10-16T10:54:22.619Z,60.5
2018-10-16T10:55:22.868Z,60.53
2018-10-16T10:56:22.894Z,60.49
2018-10-16T10:57:22.821Z,60.46
2018-10-16T10:58:22.783Z,60.52
2018-10-16T10:59:22.834Z,60.49
2018-10-16T11:00:22.742Z,60.48
2018-10-16T11:01:22.736Z,60.48
2018-10-16T11:02:22.877Z,60.51
2018-10-16T11:03:23.460Z,60.55
2018-10-16T11:04:22.775Z,60.54
2018-10-16T11:05:22.914Z,60.54
2018-10-16T11:06:22.735Z,60.61
2018-10-16T11:07:22.701Z,60.54
2018-10-16T11:08:22.493Z,60.55
2018-10-16T11:09:23.037Z,60.53
2018-10-16T11:10:22.722Z,60.54
2018-10-16T11:11:22.722Z,60.57
2018-10-16T11:12:22.835Z,60.48
2018-10-16T11:13:22.655Z,60.55
2018-10-16T11:14:22.460Z,60.57
2018-10-16T11:15:22.998Z,60.51
2018-10-16T11:16:23.418Z,60.54
2018-10-16T11:17:22.697Z,60.61
2018-10-16T11:18:22.776Z,60.49
2018-10-16T11:19:22.810Z,60.52
2018-10-16T11:20:23.039Z,60.58
2018-10-16T11:21:22.709Z,60.5
2018-10-16T11:22:22.668Z,60.58
2018-10-16T11:23:22.701Z,60.51
2018-10-16T11:24:22.702Z,60.51
2018-10-16T11:25:22.722Z,60.53
2018-10-16T11:26:22.767Z,60.51
2018-10-16T11:27:22.709Z,60.59
2018-10-16T11:28:22.460Z,60.55
2018-10-16T11:29:22.911Z,60.55
2018-10-16T11:30:22.914Z,60.54
2018-10-16T11:31:22.451Z,60.53
2018-10-16T11:32:22.598Z,60.58
2018-10-16T11:33:22.792Z,60.53
2018-10-16T11:34:22.677Z,60.55
2018-10-16T11:35:22.688Z,60.5
2018-10-16T11:36:22.637Z,60.46
2018-10-16T11:37:23.597Z,60.56
2018-10-16T11:38:22.933Z,60.59
2018-10-16T11:39:22.722Z,60.49
2018-10-16T11:40:22.606Z,60.58
2018-10-16T11:41:22.807Z,60.56
2018-10-16T11:42:22.843Z,60.49
2018-10-16T11:43:23.083Z,60.53
2018-10-16T11:44:22.479Z,60.55
2018-10-16T11:45:22.574Z,60.58
2018-10-16T11:46:22.424Z,60.51
2018-10-16T11:47:22.563Z,60.51
2018-10-16T11:48:22.988Z,60.58
2018-10-16T11:49:22.683Z,60.5
2018-10-16T11:50:22.993Z,60.57
2018-10-16T11:51:22.790Z,60.51
2018-10-16T11:52:22.983Z,60.53
2018-10-16T11:53:22.834Z,60.55
2018-10-16T11:54:22.913Z,60.53
2018-10-16T11:55:22.645Z,60.55
2018-10-16T11:56:22.734Z,60.53
2018-10-16T11:57:22.641Z,60.53
2018-10-16T11:58:22.966Z,60.59
2018-10-16T11:59:22.784Z,60.63
2018-10-16T12:00:22.846Z,60.5
2018-10-16T12:01:22.626Z,60.51
2018-10-16T12:02:22.682Z,60.55
2018-10-16T12:03:22.600Z,60.5
2018-10-16T12:04:22.801Z,60.56
2018-10-16T12:05:22.776Z,60.53
2018-10-16T12:06:22.714Z,60.47
2018-10-16T12:07:22.597Z,60.51
2018-10-16T12:08:22.815Z,60.56
2018-10-16T12:09:23.977Z,60.57
2018-10-16T12:10:22.899Z,60.56
2018-10-16T12:11:22.425Z,60.62
2018-10-16T12:12:23.066Z,60.5
2018-10-16T12:13:22.498Z,60.54
2018-10-16T12:14:22.743Z,60.51
2018-10-16T12:15:22.616Z,60.5
2018-10-16T12:16:22.669Z,60.54
2018-10-16T12:17:22.727Z,60.51
2018-10-16T12:18:22.843Z,60.58
2018-10-16T12:19:22.841Z,60.63
2018-10-16T12:20:22.795Z,60.57
2018-10-16T12:21:22.935Z,60.57
2018-10-16T12:22:22.763Z,60.53
2018-10-16T12:23:22.802Z,60.53
2018-10-16T12:24:22.869Z,60.55
2018-10-16T12:25:22.528Z,60.5
2018-10-16T12:26:22.749Z,60.51
2018-10-16T12:27:22.849Z,60.53
2018-10-16T12:28:22.645Z,60.58
2018-10-16T12:29:22.635Z,60.56
2018-10-16T12:30:22.508Z,60.56
2018-10-16T12:31:23.911Z,60.51
2018-10-16T12:32:22.980Z,60.5
2018-10-16T12:33:22.504Z,60.49
2018-10-16T12:34:22.912Z,60.48
2018-10-16T12:35:22.633Z,60.53
2018-10-16T12:36:22.912Z,60.54
2018-10-16T12:37:22.820Z,60.58
2018-10-16T12:38:22.962Z,60.63
2018-10-16T12:39:22.775Z,60.54
2018-10-16T12:40:22.603Z,60.62
2018-10-16T12:41:23.851Z,60.56
2018-10-16T12:42:22.654Z,60.55
2018-10-16T12:43:22.978Z,60.59
2018-10-16T12:44:22.672Z,60.69
2018-10-16T12:45:22.678Z,60.61
2018-10-16T12:46:22.667Z,60.55
2018-10-16T12:47:22.660Z,60.62
2018-10-16T12:48:22.804Z,60.56
2018-10-16T12:49:22.677Z,60.67
2018-10-16T12:50:23.075Z,60.61
2018-10-16T12:51:22.562Z,60.52
2018-10-16T12:52:22.441Z,60.54
2018-10-16T12:53:22.829Z,60.62
2018-10-16T12:54:22.815Z,60.65
2018-10-16T12:55:22.563Z,60.57